Relatórios de METAR próximas

 

LPAR - Alverca, Portugal
Distance from station: S 38km
Actualizado: 10/08/2020 17:00
NÃO Actual
Céu Limpo
Céu Limpo
 Vento de NNO
Vento: NNO 19 km/h
Temperatura: 27°C
Índice de Calor: 27°C
Ponto de Orvalho: 15°C
Humidade: 48%
Barómetro: 1011 hPa
Resumo: Céu Limpo
Visibilidade: greater than 10 km
2020/08/10 16:00 LPAR 101600Z 34010KT CAVOK 27/15 Q1011
LPPT - Lisbon/Portela, Portugal
Distance from station: S 52km
Actualizado: 11/08/2020 07:00
Muito Nublado
Muito Nublado
 Vento de NNO
Vento: NNO 7 km/h
Temperatura: 19°C
Ponto de Orvalho: 17°C
Humidade: 88%
Barómetro: 1012 hPa
Nuvens: Muito Nublado
Visibilidade: 10 km
Cloud details: Few Clouds 366 m
Muito Nublado 518 m
2020/08/11 06:00 LPPT 110600Z 33004KT 290V360 9999 FEW012 BKN017 19/17 Q1012
 
LPST - Sintra/Granja (a, Portugal
Distance from station: SSO 53km
Actualizado: 10/08/2020 17:00
NÃO Actual
Parc. Nublado
Parc. Nublado
 Vento de NO
Vento: NO 24 km/h
Temperatura: 22°C
Ponto de Orvalho: 16°C
Humidade: 69%
Barómetro: 1012 hPa
Nuvens: Parc. Nublado
Visibilidade: 10 km
Cloud details: Parc. Nublado 549 m
2020/08/10 16:00 LPST 101600Z 32013KT 9999 SCT018 22/16 Q1012
LPMT - Montijo (por-Afb, Portugal
Distance from station: S 59km
Actualizado: 11/08/2020 07:00
Few Clouds
Few Clouds
 Vento de NO
Vento: NO 7 km/h
Temperatura: 20°C
Ponto de Orvalho: 16°C
Humidade: 78%
Barómetro: 1011 hPa
Nuvens: Few Clouds
Visibilidade: 10 km
Cloud details: Few Clouds 549 m
2020/08/11 06:00 LPMT 110600Z 32004KT 9999 FEW018 20/16 Q1011
 
LPCS - Cascais, Portugal
Distance from station: SSO 63km
Actualizado: 11/08/2020 07:00
Muito Nublado
Muito Nublado
 Vento de O
Vento: O 6 km/h
Temperatura: 19°C
Ponto de Orvalho: 17°C
Humidade: 88%
Barómetro: 1012 hPa
Nuvens: Muito Nublado
Visibilidade: 10 km
Cloud details: Few Clouds 183 m
Muito Nublado 427 m
2020/08/11 06:00 LPCS 110600Z 26003KT 200V350 9999 FEW006 BKN014 19/17 Q1012
LPMR - Monte Real(Por-A, Portugal
Distance from station: N 67km
Actualizado: 11/08/2020 07:00
Encoberto
Encoberto
 Vento de OSO
Vento: OSO 6 km/h
Temperatura: 18°C
Ponto de Orvalho: 17°C
Humidade: 94%
Barómetro: 1011 hPa
Nuvens: Encoberto
Visibilidade: 9 km
Cloud details: Encoberto 183 m
2020/08/11 06:00 LPMR 110600Z 24003KT 200V280 9000 OVC006 18/17 Q1011